Time,TemperatureF,DewpointF,PressureIn,WindDirection,WindDirectionDegrees,WindSpeedMPH,WindSpeedGustMPH,Humidity,HourlyPrecipIn,Conditions,Clouds,dailyrainin,SoftwareType,DateUTC
2013-08-24 00:02:00,55.0,50.3,29.70,West,270,0.0,-999.0,84,-99.99,,,0.00,Acu-Link.com,2013-08-24 07:02:00,
2013-08-24 00:18:00,54.9,50.5,29.70,SW,225,1.1,-999.0,85,-99.99,,,0.00,Acu-Link.com,2013-08-24 07:18:00,
2013-08-24 00:33:00,54.9,50.8,29.70,SSW,202,0.0,-999.0,86,-99.99,,,0.00,Acu-Link.com,2013-08-24 07:33:00,
2013-08-24 00:48:00,54.5,50.4,29.70,WNW,292,0.0,-999.0,86,-99.99,,,0.00,Acu-Link.com,2013-08-24 07:48:00,
2013-08-24 01:03:00,54.7,50.9,29.70,WNW,292,0.0,-999.0,87,-99.99,,,0.00,Acu-Link.com,2013-08-24 08:03:00,
2013-08-24 01:19:00,55.0,51.8,29.70,WNW,292,0.0,-999.0,89,-99.99,,,0.00,Acu-Link.com,2013-08-24 08:19:00,
2013-08-24 01:34:00,54.7,51.5,29.71,WNW,292,0.0,-999.0,89,-99.99,,,0.00,Acu-Link.com,2013-08-24 08:34:00,
2013-08-24 01:49:00,54.3,51.1,29.70,WNW,292,0.0,-999.0,89,-99.99,,,0.00,Acu-Link.com,2013-08-24 08:49:00,
2013-08-24 02:04:00,54.3,51.7,29.71,WNW,292,0.0,-999.0,91,-99.99,,,0.00,Acu-Link.com,2013-08-24 09:04:00,
2013-08-24 02:20:00,54.5,51.9,29.71,WNW,292,0.0,-999.0,91,-99.99,,,0.00,Acu-Link.com,2013-08-24 09:20:00,
2013-08-24 02:35:00,54.3,51.7,29.71,WNW,292,0.0,-999.0,91,-99.99,,,0.00,Acu-Link.com,2013-08-24 09:35:00,
2013-08-24 02:50:00,54.5,52.2,29.71,WNW,292,0.0,-999.0,92,-99.99,,,0.00,Acu-Link.com,2013-08-24 09:50:00,
2013-08-24 03:05:00,54.0,52.0,29.71,West,270,0.0,-999.0,93,-99.99,,,0.00,Acu-Link.com,2013-08-24 10:05:00,
2013-08-24 03:20:00,53.8,51.8,29.71,SW,225,1.7,-999.0,93,-99.99,,,0.00,Acu-Link.com,2013-08-24 10:20:00,
2013-08-24 03:35:00,54.0,52.3,29.72,South,180,0.0,-999.0,94,-99.99,,,0.00,Acu-Link.com,2013-08-24 10:35:00,
2013-08-24 03:51:00,53.8,51.8,29.71,WNW,292,0.0,-999.0,93,-99.99,,,0.00,Acu-Link.com,2013-08-24 10:51:00,
2013-08-24 04:06:00,53.6,51.6,29.71,WSW,247,0.0,-999.0,93,-99.99,,,0.00,Acu-Link.com,2013-08-24 11:06:00,
2013-08-24 04:21:00,53.6,51.9,29.71,WNW,292,0.0,-999.0,94,-99.99,,,0.00,Acu-Link.com,2013-08-24 11:21:00,
2013-08-24 04:37:00,53.6,51.9,29.72,WSW,247,0.0,-999.0,94,-99.99,,,0.00,Acu-Link.com,2013-08-24 11:37:00,
2013-08-24 04:52:00,53.2,51.5,29.70,WSW,247,0.0,-999.0,94,-99.99,,,0.00,Acu-Link.com,2013-08-24 11:52:00,
2013-08-24 05:07:00,53.2,51.5,29.70,SW,225,0.0,-999.0,94,-99.99,,,0.00,Acu-Link.com,2013-08-24 12:07:00,
2013-08-24 05:22:00,53.8,52.7,29.71,SW,225,0.0,-999.0,96,-99.99,,,0.00,Acu-Link.com,2013-08-24 12:22:00,
2013-08-24 05:37:00,53.6,52.2,29.71,WNW,292,0.0,-999.0,95,-99.99,,,0.00,Acu-Link.com,2013-08-24 12:37:00,
2013-08-24 05:53:00,53.6,52.5,29.71,WSW,247,0.0,-999.0,96,-99.99,,,0.00,Acu-Link.com,2013-08-24 12:53:00,
2013-08-24 06:08:00,53.4,52.3,29.72,SW,225,0.0,-999.0,96,-99.99,,,0.00,Acu-Link.com,2013-08-24 13:08:00,
2013-08-24 06:23:00,53.2,52.1,29.72,West,270,0.0,-999.0,96,-99.99,,,0.00,Acu-Link.com,2013-08-24 13:23:00,
2013-08-24 06:38:00,53.2,52.1,29.72,WSW,247,0.0,-999.0,96,-99.99,,,0.00,Acu-Link.com,2013-08-24 13:38:00,
2013-08-24 06:53:00,53.6,52.5,29.73,SW,225,0.0,-999.0,96,-99.99,,,0.00,Acu-Link.com,2013-08-24 13:53:00,
2013-08-24 07:09:00,56.3,55.5,29.72,NNW,337,0.0,-999.0,97,-99.99,,,0.00,Acu-Link.com,2013-08-24 14:09:00,
2013-08-24 07:24:00,60.4,59.0,29.73,NNE,22,0.0,-999.0,95,-99.99,,,0.00,Acu-Link.com,2013-08-24 14:24:00,
2013-08-24 07:39:00,63.0,58.4,29.73,South,180,0.0,-999.0,85,-99.99,,,0.00,Acu-Link.com,2013-08-24 14:39:00,
2013-08-24 07:54:00,66.2,57.7,29.74,ESE,112,0.0,-999.0,74,-99.99,,,0.00,Acu-Link.com,2013-08-24 14:54:00,
2013-08-24 08:10:00,69.3,58.3,29.75,ESE,112,1.7,-999.0,68,-99.99,,,0.00,Acu-Link.com,2013-08-24 15:10:00,
2013-08-24 08:25:00,70.7,59.2,29.74,South,180,0.0,-999.0,67,-99.99,,,0.00,Acu-Link.com,2013-08-24 15:25:00,
2013-08-24 08:40:00,73.6,59.8,29.74,ENE,67,3.7,-999.0,62,-99.99,,,0.00,Acu-Link.com,2013-08-24 15:40:00,
2013-08-24 08:55:00,73.9,60.0,29.74,North,0,1.7,-999.0,62,-99.99,,,0.00,Acu-Link.com,2013-08-24 15:55:00,
2013-08-24 09:11:00,76.5,61.1,29.75,NNW,337,1.1,-999.0,59,-99.99,,,0.00,Acu-Link.com,2013-08-24 16:11:00,
2013-08-24 09:26:00,71.1,59.2,29.74,West,270,2.2,-999.0,66,-99.99,,,0.00,Acu-Link.com,2013-08-24 16:26:00,
2013-08-24 09:41:00,72.3,59.9,29.75,SE,135,2.2,-999.0,65,-99.99,,,0.00,Acu-Link.com,2013-08-24 16:41:00,
2013-08-24 09:56:00,73.0,60.1,29.74,SE,135,6.3,-999.0,64,-99.99,,,0.00,Acu-Link.com,2013-08-24 16:56:00,
2013-08-24 10:11:00,74.1,60.7,29.74,SW,225,5.3,-999.0,63,-99.99,,,0.00,Acu-Link.com,2013-08-24 17:11:00,
2013-08-24 10:27:00,74.7,61.3,29.76,NNW,337,1.1,-999.0,63,-99.99,,,0.00,Acu-Link.com,2013-08-24 17:27:00,
2013-08-24 10:42:00,75.9,61.5,29.76,South,180,2.2,-999.0,61,-99.99,,,0.00,Acu-Link.com,2013-08-24 17:42:00,
2013-08-24 10:57:00,75.7,61.3,29.75,SE,135,1.1,-999.0,61,-99.99,,,0.00,Acu-Link.com,2013-08-24 17:57:00,
2013-08-24 11:12:00,75.2,61.3,29.76,NNE,22,1.7,-999.0,62,-99.99,,,0.00,Acu-Link.com,2013-08-24 18:12:00,
2013-08-24 11:27:00,75.2,61.7,29.75,ESE,112,1.7,-999.0,63,-99.99,,,0.00,Acu-Link.com,2013-08-24 18:27:00,
2013-08-24 11:43:00,76.8,62.8,29.75,NE,45,2.7,-999.0,62,-99.99,,,0.00,Acu-Link.com,2013-08-24 18:43:00,
2013-08-24 11:58:00,76.6,62.1,29.75,SE,135,1.7,-999.0,61,-99.99,,,0.00,Acu-Link.com,2013-08-24 18:58:00,
2013-08-24 12:13:00,79.7,61.6,29.75,ENE,67,4.2,-999.0,54,-99.99,,,0.00,Acu-Link.com,2013-08-24 19:13:00,
2013-08-24 12:28:00,79.7,61.6,29.75,West,270,3.7,-999.0,54,-99.99,,,0.00,Acu-Link.com,2013-08-24 19:28:00,
2013-08-24 12:44:00,79.7,60.5,29.73,North,0,3.2,-999.0,52,-99.99,,,0.00,Acu-Link.com,2013-08-24 19:44:00,
2013-08-24 12:59:00,80.8,61.5,29.74,North,0,2.7,-999.0,52,-99.99,,,0.00,Acu-Link.com,2013-08-24 19:59:00,
2013-08-24 13:14:00,79.7,60.5,29.75,NE,45,3.2,-999.0,52,-99.99,,,0.00,Acu-Link.com,2013-08-24 20:14:00,
2013-08-24 13:29:00,79.9,60.7,29.75,NW,315,4.7,-999.0,52,-99.99,,,0.00,Acu-Link.com,2013-08-24 20:29:00,
2013-08-24 13:45:00,79.0,60.9,29.74,North,0,5.3,-999.0,54,-99.99,,,0.00,Acu-Link.com,2013-08-24 20:45:00,
2013-08-24 14:00:00,79.9,60.7,29.73,SE,135,2.7,-999.0,52,-99.99,,,0.00,Acu-Link.com,2013-08-24 21:00:00,
2013-08-24 14:15:00,81.1,60.7,29.75,West,270,2.2,-999.0,50,-99.99,,,0.00,Acu-Link.com,2013-08-24 21:15:00,
2013-08-24 14:30:00,81.1,61.2,29.74,ESE,112,1.1,-999.0,51,-99.99,,,0.00,Acu-Link.com,2013-08-24 21:30:00,
2013-08-24 14:46:00,80.2,60.4,29.73,SSE,157,2.7,-999.0,51,-99.99,,,0.00,Acu-Link.com,2013-08-24 21:46:00,
2013-08-24 15:01:00,79.2,60.6,29.73,SW,225,3.7,-999.0,53,-99.99,,,0.00,Acu-Link.com,2013-08-24 22:01:00,
2013-08-24 15:16:00,79.2,60.6,29.74,WNW,292,5.8,-999.0,53,-99.99,,,0.00,Acu-Link.com,2013-08-24 22:16:00,
2013-08-24 15:31:00,77.9,60.4,29.73,East,90,3.2,-999.0,55,-99.99,,,0.00,Acu-Link.com,2013-08-24 22:31:00,
2013-08-24 15:47:00,78.3,60.8,29.73,SSW,202,6.3,-999.0,55,-99.99,,,0.00,Acu-Link.com,2013-08-24 22:47:00,
2013-08-24 16:02:00,77.9,60.4,29.72,NNE,22,3.7,-999.0,55,-99.99,,,0.00,Acu-Link.com,2013-08-24 23:02:00,
2013-08-24 16:17:00,78.1,61.1,29.73,North,0,6.3,-999.0,56,-99.99,,,0.00,Acu-Link.com,2013-08-24 23:17:00,
2013-08-24 16:32:00,77.7,61.2,29.72,SSE,157,3.7,-999.0,57,-99.99,,,0.00,Acu-Link.com,2013-08-24 23:32:00,
2013-08-24 16:47:00,76.6,60.7,29.73,NNE,22,1.7,-999.0,58,-99.99,,,0.00,Acu-Link.com,2013-08-24 23:47:00,
2013-08-24 17:03:00,75.0,60.2,29.74,WSW,247,9.9,-999.0,60,-99.99,,,0.00,Acu-Link.com,2013-08-25 00:03:00,
2013-08-24 17:18:00,74.5,60.2,29.73,WNW,292,3.2,-999.0,61,-99.99,,,0.00,Acu-Link.com,2013-08-25 00:18:00,
2013-08-24 17:33:00,73.2,59.8,29.72,ESE,112,6.3,-999.0,63,-99.99,,,0.00,Acu-Link.com,2013-08-25 00:33:00,
2013-08-24 17:49:00,72.9,59.6,29.73,ESE,112,3.2,-999.0,63,-99.99,,,0.00,Acu-Link.com,2013-08-25 00:49:00,
2013-08-24 18:04:00,72.3,59.0,29.71,East,90,2.7,-999.0,63,-99.99,,,0.00,Acu-Link.com,2013-08-25 01:04:00,
2013-08-24 18:19:00,72.5,59.2,29.73,SSE,157,6.3,-999.0,63,-99.99,,,0.00,Acu-Link.com,2013-08-25 01:19:00,
2013-08-24 18:34:00,71.2,58.4,29.72,South,180,2.7,-999.0,64,-99.99,,,0.00,Acu-Link.com,2013-08-25 01:34:00,
2013-08-24 18:49:00,70.0,58.1,29.71,South,180,2.7,-999.0,66,-99.99,,,0.00,Acu-Link.com,2013-08-25 01:49:00,
2013-08-24 19:05:00,68.4,57.8,29.73,South,180,1.1,-999.0,69,-99.99,,,0.00,Acu-Link.com,2013-08-25 02:05:00,
2013-08-24 19:20:00,66.7,57.4,29.73,WSW,247,4.2,-999.0,72,-99.99,,,0.00,Acu-Link.com,2013-08-25 02:20:00,
2013-08-24 19:35:00,65.5,57.7,29.73,SSE,157,3.7,-999.0,76,-99.99,,,0.00,Acu-Link.com,2013-08-25 02:35:00,
2013-08-24 19:50:00,64.0,57.4,29.72,SW,225,5.3,-999.0,79,-99.99,,,0.00,Acu-Link.com,2013-08-25 02:50:00,
2013-08-24 20:06:00,63.5,57.2,29.73,SW,225,4.7,-999.0,80,-99.99,,,0.00,Acu-Link.com,2013-08-25 03:06:00,
2013-08-24 20:21:00,63.0,57.4,29.73,SSE,157,2.2,-999.0,82,-99.99,,,0.00,Acu-Link.com,2013-08-25 03:21:00,
2013-08-24 20:36:00,62.6,57.4,29.73,NE,45,0.0,-999.0,83,-99.99,,,0.00,Acu-Link.com,2013-08-25 03:36:00,
2013-08-24 20:51:00,61.9,57.0,29.73,South,180,1.7,-999.0,84,-99.99,,,0.00,Acu-Link.com,2013-08-25 03:51:00,
2013-08-24 21:06:00,61.9,57.7,29.75,SSE,157,2.2,-999.0,86,-99.99,,,0.00,Acu-Link.com,2013-08-25 04:06:00,
2013-08-24 21:22:00,61.5,57.6,29.74,SW,225,1.7,-999.0,87,-99.99,,,0.00,Acu-Link.com,2013-08-25 04:22:00,
2013-08-24 21:37:00,61.3,57.7,29.76,SSE,157,0.0,-999.0,88,-99.99,,,0.00,Acu-Link.com,2013-08-25 04:37:00,
2013-08-24 21:52:00,61.7,58.4,29.75,WSW,247,3.7,-999.0,89,-99.99,,,0.00,Acu-Link.com,2013-08-25 04:52:00,
2013-08-24 22:07:00,61.9,58.6,29.75,North,0,1.7,-999.0,89,-99.99,,,0.00,Acu-Link.com,2013-08-25 05:07:00,
2013-08-24 22:23:00,61.7,58.7,29.77,SE,135,0.0,-999.0,90,-99.99,,,0.00,Acu-Link.com,2013-08-25 05:23:00,
2013-08-24 22:38:00,61.3,58.3,29.75,SW,225,0.0,-999.0,90,-99.99,,,0.00,Acu-Link.com,2013-08-25 05:38:00,
2013-08-24 22:53:00,61.0,58.0,29.76,NNW,337,0.0,-999.0,90,-99.99,,,0.00,Acu-Link.com,2013-08-25 05:53:00,
2013-08-24 23:08:00,60.8,57.8,29.76,SW,225,0.0,-999.0,90,-99.99,,,0.00,Acu-Link.com,2013-08-25 06:08:00,
2013-08-24 23:24:00,61.3,58.6,29.76,SSW,202,0.0,-999.0,91,-99.99,,,0.00,Acu-Link.com,2013-08-25 06:24:00,
2013-08-24 23:39:00,61.7,59.0,29.76,SW,225,1.7,-999.0,91,-99.99,,,0.00,Acu-Link.com,2013-08-25 06:39:00,
2013-08-24 23:54:00,61.9,59.2,29.75,ESE,112,1.1,-999.0,91,-99.99,,,0.00,Acu-Link.com,2013-08-25 06:54:00,